createdAt,value
2018-08-11T00:00:16.643Z,72.40
2018-08-11T00:02:44.963Z,72.40
2018-08-11T00:05:13.202Z,73.50
2018-08-11T00:07:41.406Z,72.80
2018-08-11T00:10:09.731Z,73.10
2018-08-11T00:12:38.104Z,73.10
2018-08-11T00:15:08.329Z,73.20
2018-08-11T00:17:36.595Z,73.40
2018-08-11T00:20:06.667Z,73.50
2018-08-11T00:22:34.888Z,73.90
2018-08-11T00:25:03.095Z,74.20
2018-08-11T00:27:31.311Z,74.50
2018-08-11T00:30:00.773Z,74.80
2018-08-11T00:32:29.143Z,75.00
2018-08-11T00:34:57.757Z,75.20
2018-08-11T00:37:25.975Z,75.50
2018-08-11T00:39:54.441Z,75.80
2018-08-11T00:42:22.729Z,75.80
2018-08-11T00:44:50.957Z,75.90
2018-08-11T00:47:19.167Z,76.00
2018-08-11T00:49:47.415Z,76.20
2018-08-11T00:52:15.632Z,76.30
2018-08-11T00:54:43.825Z,76.50
2018-08-11T00:57:12.044Z,76.90
2018-08-11T00:59:40.269Z,76.80
2018-08-11T01:02:08.520Z,77.00
2018-08-11T01:04:36.723Z,77.30
2018-08-11T01:07:04.963Z,77.40
2018-08-11T01:09:33.171Z,77.50
2018-08-11T01:12:01.387Z,77.50
2018-08-11T01:14:29.603Z,77.80
2018-08-11T01:16:57.823Z,77.90
2018-08-11T01:19:26.125Z,77.70
2018-08-11T01:21:54.435Z,77.60
2018-08-11T01:24:22.676Z,77.40
2018-08-11T01:26:51.037Z,77.10
2018-08-11T01:29:19.249Z,77.20
2018-08-11T01:31:47.458Z,77.30
2018-08-11T01:34:15.664Z,77.30
2018-08-11T01:36:43.887Z,77.20
2018-08-11T01:39:12.168Z,76.80
2018-08-11T01:41:40.373Z,76.80
2018-08-11T01:44:08.643Z,77.30
2018-08-11T01:46:36.825Z,77.40
2018-08-11T01:49:05.094Z,78.00
2018-08-11T01:51:33.284Z,78.20
2018-08-11T01:54:01.514Z,78.20
2018-08-11T01:56:29.685Z,78.50
2018-08-11T01:58:57.904Z,78.50
2018-08-11T02:01:26.094Z,78.30
2018-08-11T02:03:54.306Z,78.30
2018-08-11T02:06:22.533Z,78.30
2018-08-11T02:08:50.790Z,78.40
2018-08-11T02:11:19.001Z,78.30
2018-08-11T02:13:47.189Z,78.80
2018-08-11T02:16:15.387Z,79.30
2018-08-11T02:18:43.668Z,79.60
2018-08-11T02:21:11.949Z,80.10
2018-08-11T02:23:40.254Z,80.20
2018-08-11T02:26:08.520Z,80.40
2018-08-11T02:28:36.728Z,80.10
2018-08-11T02:31:04.940Z,80.50
2018-08-11T02:33:33.118Z,80.60
2018-08-11T02:36:01.330Z,80.80
2018-08-11T02:38:29.628Z,81.20
2018-08-11T02:40:57.830Z,81.50
2018-08-11T02:43:26.036Z,81.90
2018-08-11T02:45:54.237Z,82.40
2018-08-11T02:48:22.504Z,82.60
2018-08-11T02:50:50.718Z,82.50
2018-08-11T02:53:18.919Z,82.70
2018-08-11T02:55:47.140Z,82.80
2018-08-11T02:58:15.377Z,83.00
2018-08-11T03:00:43.600Z,83.10
2018-08-11T03:03:11.850Z,83.30
2018-08-11T03:05:40.041Z,83.30
2018-08-11T03:08:08.344Z,83.70
2018-08-11T03:10:36.591Z,83.70
2018-08-11T03:13:04.870Z,83.80
2018-08-11T03:15:33.070Z,83.90
2018-08-11T03:18:01.334Z,84.00
2018-08-11T03:20:29.527Z,83.90
2018-08-11T03:22:57.722Z,83.60
2018-08-11T03:25:25.940Z,83.10
2018-08-11T03:27:54.238Z,82.90
2018-08-11T03:30:22.438Z,82.40
2018-08-11T03:32:50.668Z,82.30
2018-08-11T03:35:18.868Z,81.90
2018-08-11T03:37:47.064Z,81.70
2018-08-11T03:40:15.288Z,81.70
2018-08-11T03:42:43.549Z,81.40
2018-08-11T03:45:12.016Z,81.10
2018-08-11T03:47:40.216Z,81.20
2018-08-11T03:50:08.558Z,81.00
2018-08-11T03:52:37.141Z,81.20
2018-08-11T03:55:05.270Z,81.20
2018-08-11T03:57:33.485Z,81.10
2018-08-11T04:00:01.682Z,81.10
2018-08-11T04:02:29.890Z,80.60
2018-08-11T04:04:58.091Z,80.80
2018-08-11T04:10:57.114Z,81.00
2018-08-11T04:13:25.356Z,80.90
2018-08-11T04:15:53.544Z,81.30
2018-08-11T04:18:21.860Z,81.60
2018-08-11T04:20:50.070Z,81.50
2018-08-11T04:23:18.263Z,82.10
2018-08-11T04:25:46.460Z,82.20
2018-08-11T04:28:14.724Z,82.30
2018-08-11T04:30:42.937Z,82.50
2018-08-11T04:33:11.130Z,82.70
2018-08-11T04:35:39.402Z,82.70
2018-08-11T04:38:07.696Z,82.70
2018-08-11T04:40:36.280Z,82.90
2018-08-11T04:43:04.504Z,83.40
2018-08-11T04:45:32.690Z,83.30
2018-08-11T04:48:00.934Z,83.20
2018-08-11T04:50:29.116Z,83.00
2018-08-11T04:52:57.330Z,82.90
2018-08-11T04:55:25.548Z,82.70
2018-08-11T04:57:53.800Z,82.50
2018-08-11T05:00:21.983Z,82.30
2018-08-11T05:02:50.164Z,82.10
2018-08-11T05:05:18.384Z,81.90
2018-08-11T05:07:46.568Z,81.90
2018-08-11T05:10:14.772Z,81.70
2018-08-11T05:12:42.952Z,81.80
2018-08-11T05:15:11.159Z,81.50
2018-08-11T05:17:39.366Z,81.90
2018-08-11T05:20:08.036Z,81.50
2018-08-11T05:22:36.244Z,81.50
2018-08-11T05:25:04.439Z,81.90
2018-08-11T05:27:32.650Z,82.10
2018-08-11T05:30:00.864Z,81.90
2018-08-11T05:32:29.352Z,81.00
2018-08-11T05:34:57.526Z,80.70
2018-08-11T05:37:25.726Z,80.40
2018-08-11T05:39:53.918Z,80.10
2018-08-11T05:42:22.142Z,79.90
2018-08-11T05:44:50.335Z,79.70
2018-08-11T05:47:18.521Z,80.20
2018-08-11T05:49:46.707Z,79.90
2018-08-11T05:52:14.944Z,80.00
2018-08-11T05:54:43.144Z,79.90
2018-08-11T05:57:11.325Z,80.00
2018-08-11T05:59:39.726Z,80.80
2018-08-11T06:02:08.160Z,81.50
2018-08-11T06:04:36.345Z,83.40
2018-08-11T06:07:04.602Z,85.90
2018-08-11T06:09:32.784Z,87.00
2018-08-11T06:12:01.001Z,87.80
2018-08-11T06:14:29.188Z,88.40
2018-08-11T06:16:57.394Z,88.10
2018-08-11T06:19:25.650Z,88.30
2018-08-11T06:21:54.045Z,88.20
2018-08-11T06:24:22.252Z,88.20
2018-08-11T06:26:50.556Z,88.40
2018-08-11T06:29:18.743Z,90.00
2018-08-11T06:31:46.965Z,90.10
2018-08-11T06:34:15.336Z,90.00
2018-08-11T06:36:43.548Z,90.00
2018-08-11T06:39:13.735Z,89.30
2018-08-11T06:41:42.535Z,88.90
2018-08-11T06:44:11.532Z,88.70
2018-08-11T06:46:39.744Z,89.60
2018-08-11T06:49:07.997Z,88.90
2018-08-11T06:51:36.667Z,88.10
2018-08-11T06:54:04.868Z,87.70
2018-08-11T06:56:33.088Z,86.90
2018-08-11T06:59:01.349Z,86.20
2018-08-11T07:01:29.571Z,86.00
2018-08-11T07:03:57.798Z,86.90
2018-08-11T07:06:25.988Z,86.60
2018-08-11T07:08:54.273Z,87.00
2018-08-11T07:11:22.455Z,87.10
2018-08-11T07:13:50.655Z,87.40
2018-08-11T07:16:18.873Z,87.00
2018-08-11T07:18:47.077Z,86.80
2018-08-11T07:21:15.351Z,85.80
2018-08-11T07:23:43.487Z,85.20
2018-08-11T07:28:34.606Z,84.10
2018-08-11T07:31:02.885Z,82.70
2018-08-11T07:33:31.202Z,82.60
2018-08-11T07:35:59.451Z,82.40
2018-08-11T07:38:27.769Z,82.40
2018-08-11T07:40:55.983Z,81.90
2018-08-11T07:43:28.864Z,82.40
2018-08-11T07:45:58.301Z,82.60
2018-08-11T07:48:26.579Z,82.80
2018-08-11T07:50:56.505Z,82.80
2018-08-11T07:53:40.879Z,82.50
2018-08-11T07:56:24.890Z,82.30
2018-08-11T07:59:03.916Z,81.90
2018-08-11T08:01:48.392Z,80.80
2018-08-11T08:04:27.122Z,81.00
2018-08-11T08:07:09.066Z,80.00
2018-08-11T08:09:41.396Z,79.60
2018-08-11T08:12:09.623Z,77.70
2018-08-11T08:14:37.826Z,77.00
2018-08-11T08:17:06.130Z,77.60
2018-08-11T08:19:34.316Z,77.20
2018-08-11T08:22:03.256Z,76.20
2018-08-11T08:24:31.479Z,75.90
2018-08-11T08:27:00.010Z,75.10
2018-08-11T08:29:28.219Z,74.00
2018-08-11T08:31:56.457Z,73.20
2018-08-11T08:34:24.650Z,72.90
2018-08-11T08:36:53.046Z,72.60
2018-08-11T08:39:21.286Z,72.70
2018-08-11T08:41:49.478Z,70.50
2018-08-11T08:44:17.740Z,69.70
2018-08-11T08:46:46.044Z,68.70
2018-08-11T08:49:14.528Z,68.40
2018-08-11T08:51:42.720Z,68.10
2018-08-11T08:54:10.918Z,65.70
2018-08-11T08:56:39.118Z,65.40
2018-08-11T08:59:07.446Z,64.20
2018-08-11T09:01:35.825Z,64.30
2018-08-11T09:04:04.361Z,64.30
2018-08-11T09:06:32.572Z,63.70
2018-08-11T09:09:01.000Z,64.30
2018-08-11T09:11:29.206Z,63.30
2018-08-11T09:13:57.395Z,61.10
2018-08-11T09:16:25.604Z,61.20
2018-08-11T09:18:53.808Z,61.40
2018-08-11T09:21:29.836Z,60.00
2018-08-11T09:24:06.506Z,59.90
2018-08-11T09:26:39.322Z,59.70
2018-08-11T09:29:16.128Z,57.20
2018-08-11T09:31:53.128Z,55.50
2018-08-11T09:34:28.872Z,53.90
2018-08-11T09:36:57.401Z,52.80
2018-08-11T09:39:32.706Z,52.50
2018-08-11T09:42:10.142Z,52.50
2018-08-11T09:44:45.034Z,52.20
2018-08-11T09:47:20.454Z,52.60
2018-08-11T09:49:56.590Z,52.60
2018-08-11T09:52:25.090Z,52.10
2018-08-11T09:54:53.445Z,51.30
2018-08-11T09:57:21.636Z,50.00
2018-08-11T09:59:49.835Z,47.20
2018-08-11T10:02:20.200Z,45.90
2018-08-11T10:04:48.444Z,42.80
2018-08-11T10:07:16.649Z,41.70
2018-08-11T10:09:44.854Z,40.60
2018-08-11T10:12:13.034Z,39.10
2018-08-11T10:14:41.234Z,38.30
2018-08-11T10:17:09.444Z,38.20
2018-08-11T10:19:37.633Z,38.30
2018-08-11T10:22:05.939Z,37.50
2018-08-11T10:24:34.153Z,38.30
2018-08-11T10:27:02.447Z,40.00
2018-08-11T10:29:30.631Z,39.10
2018-08-11T10:31:58.790Z,37.10
2018-08-11T10:34:27.078Z,37.50
2018-08-11T10:36:55.264Z,37.60
2018-08-11T10:39:23.563Z,36.20
2018-08-11T10:41:51.742Z,35.60
2018-08-11T10:44:20.260Z,35.60
2018-08-11T10:46:48.476Z,34.50
2018-08-11T10:49:16.690Z,34.30
2018-08-11T10:51:44.909Z,33.40
2018-08-11T10:54:13.089Z,32.60
2018-08-11T10:56:41.312Z,32.20
2018-08-11T10:59:09.662Z,32.40
2018-08-11T11:01:38.424Z,31.80
2018-08-11T11:04:06.647Z,31.30
2018-08-11T11:06:35.159Z,30.90
2018-08-11T11:09:04.248Z,30.60
2018-08-11T11:11:32.441Z,30.70
2018-08-11T11:14:00.618Z,31.60
2018-08-11T11:16:28.840Z,32.10
2018-08-11T11:18:57.029Z,33.10
2018-08-11T11:21:25.249Z,34.40
2018-08-11T11:23:53.466Z,33.70
2018-08-11T11:26:24.193Z,32.90
2018-08-11T11:28:52.440Z,33.00
2018-08-11T11:31:20.633Z,32.60
2018-08-11T11:33:48.852Z,32.50
2018-08-11T11:36:17.019Z,33.30
2018-08-11T11:38:45.188Z,34.80
2018-08-11T11:41:13.392Z,34.90
2018-08-11T11:43:41.609Z,33.20
2018-08-11T11:46:09.796Z,32.50
2018-08-11T11:48:38.035Z,33.60
2018-08-11T11:51:06.216Z,32.60
2018-08-11T11:53:34.425Z,30.80
2018-08-11T11:56:02.638Z,30.10
2018-08-11T11:58:30.818Z,29.20
2018-08-11T12:00:59.002Z,29.50
2018-08-11T12:03:27.182Z,29.80
2018-08-11T12:05:55.461Z,30.00
2018-08-11T12:08:23.582Z,29.60
2018-08-11T12:10:51.791Z,30.00
2018-08-11T12:13:19.988Z,29.60
2018-08-11T12:15:48.216Z,29.20
2018-08-11T12:18:16.504Z,29.30
2018-08-11T12:20:44.696Z,30.00
2018-08-11T12:23:12.923Z,30.40
2018-08-11T12:25:41.119Z,31.40
2018-08-11T12:28:09.364Z,31.90
2018-08-11T12:30:37.574Z,31.70
2018-08-11T12:33:05.856Z,30.30
2018-08-11T12:35:34.064Z,28.90
2018-08-11T12:38:02.419Z,28.50
2018-08-11T12:40:30.780Z,28.30
2018-08-11T12:42:59.120Z,28.40
2018-08-11T12:45:27.328Z,28.80
2018-08-11T12:47:55.612Z,29.60
2018-08-11T12:50:24.142Z,29.70
2018-08-11T12:52:52.347Z,29.20
2018-08-11T12:55:20.571Z,28.30
2018-08-11T12:57:48.797Z,28.00
2018-08-11T13:00:17.051Z,27.20
2018-08-11T13:02:45.325Z,26.90
2018-08-11T13:05:13.527Z,26.60
2018-08-11T13:07:41.739Z,26.40
2018-08-11T13:10:09.924Z,25.40
2018-08-11T13:12:38.124Z,26.20
2018-08-11T13:15:06.367Z,26.70
2018-08-11T13:17:34.582Z,26.90
2018-08-11T13:20:02.784Z,26.60
2018-08-11T13:22:30.980Z,27.20
2018-08-11T13:24:59.170Z,27.10
2018-08-11T13:27:27.779Z,27.20
2018-08-11T13:29:55.971Z,27.30
2018-08-11T13:32:24.167Z,27.30
2018-08-11T13:34:52.385Z,26.60
2018-08-11T13:37:20.561Z,26.90
2018-08-11T13:39:50.481Z,25.80
2018-08-11T13:42:19.005Z,25.30
2018-08-11T13:44:47.211Z,25.90
2018-08-11T13:47:15.584Z,25.60
2018-08-11T13:49:44.068Z,25.30
2018-08-11T13:52:12.337Z,25.60
2018-08-11T13:54:40.519Z,25.90
2018-08-11T13:57:08.741Z,25.90
2018-08-11T13:59:36.939Z,25.80
2018-08-11T14:02:05.275Z,26.30
2018-08-11T14:04:33.515Z,26.00
2018-08-11T14:07:01.753Z,24.60
2018-08-11T14:09:30.054Z,25.10
2018-08-11T14:11:58.247Z,25.50
2018-08-11T14:14:26.467Z,25.60
2018-08-11T14:16:54.721Z,25.50
2018-08-11T14:19:22.924Z,25.30
2018-08-11T14:21:51.349Z,25.40
2018-08-11T14:24:19.753Z,25.30
2018-08-11T14:26:47.957Z,24.90
2018-08-11T14:29:16.644Z,24.90
2018-08-11T14:31:44.829Z,24.80
2018-08-11T14:34:13.401Z,24.90
2018-08-11T14:36:41.651Z,25.00
2018-08-11T14:39:10.448Z,25.20
2018-08-11T14:41:38.751Z,24.90
2018-08-11T14:44:07.113Z,25.80
2018-08-11T14:46:35.307Z,26.60
2018-08-11T14:49:03.850Z,26.00
2018-08-11T14:51:32.109Z,25.90
2018-08-11T14:54:00.352Z,26.00
2018-08-11T14:56:28.555Z,26.70
2018-08-11T14:58:56.883Z,26.30
2018-08-11T15:01:25.082Z,26.60
2018-08-11T15:03:53.440Z,26.50
2018-08-11T15:06:22.157Z,26.80
2018-08-11T15:08:50.376Z,26.50
2018-08-11T15:11:18.713Z,26.40
2018-08-11T15:13:46.914Z,26.50
2018-08-11T15:16:15.176Z,26.30
2018-08-11T15:18:43.385Z,26.60
2018-08-11T15:21:11.600Z,27.10
2018-08-11T15:23:39.919Z,27.30
2018-08-11T15:26:08.124Z,27.80
2018-08-11T15:28:36.390Z,27.70
2018-08-11T15:31:04.600Z,27.30
2018-08-11T15:33:32.832Z,27.20
2018-08-11T15:36:01.020Z,27.60
2018-08-11T15:38:29.265Z,28.20
2018-08-11T15:40:57.502Z,28.70
2018-08-11T15:43:25.638Z,29.10
2018-08-11T15:45:53.878Z,29.50
2018-08-11T15:48:22.148Z,29.60
2018-08-11T15:50:50.342Z,29.20
2018-08-11T15:53:18.542Z,29.40
2018-08-11T15:55:46.732Z,29.70
2018-08-11T15:58:15.016Z,30.40
2018-08-11T16:00:43.204Z,30.60
2018-08-11T16:03:11.439Z,30.60
2018-08-11T16:05:39.610Z,31.40
2018-08-11T16:08:07.833Z,31.60
2018-08-11T16:10:36.032Z,31.40
2018-08-11T16:13:04.222Z,31.90
2018-08-11T16:15:32.538Z,32.10
2018-08-11T16:18:00.804Z,32.40
2018-08-11T16:20:29.052Z,32.50
2018-08-11T16:22:57.278Z,32.40
2018-08-11T16:25:25.584Z,31.90
2018-08-11T16:27:53.779Z,31.90
2018-08-11T16:30:21.972Z,32.10
2018-08-11T16:32:50.154Z,31.90
2018-08-11T16:35:18.360Z,32.10
2018-08-11T16:37:46.582Z,32.40
2018-08-11T16:40:14.789Z,32.20
2018-08-11T16:42:43.002Z,32.50
2018-08-11T16:45:11.385Z,32.10
2018-08-11T16:47:39.576Z,32.70
2018-08-11T16:50:07.812Z,32.80
2018-08-11T16:52:36.023Z,33.20
2018-08-11T16:55:04.222Z,33.20
2018-08-11T16:57:32.406Z,33.00
2018-08-11T17:00:00.610Z,33.20
2018-08-11T17:02:28.820Z,33.20
2018-08-11T17:04:56.985Z,33.80
2018-08-11T17:07:25.170Z,34.20
2018-08-11T17:09:53.416Z,34.20
2018-08-11T17:12:21.644Z,33.50
2018-08-11T17:14:49.945Z,33.60
2018-08-11T17:17:18.026Z,33.80
2018-08-11T17:19:46.314Z,33.90
2018-08-11T17:22:14.508Z,34.10
2018-08-11T17:24:42.728Z,34.40
2018-08-11T17:27:10.943Z,34.50
2018-08-11T17:29:39.106Z,34.80
2018-08-11T17:32:07.336Z,35.30
2018-08-11T17:34:35.544Z,35.20
2018-08-11T17:37:03.760Z,35.00
2018-08-11T17:39:31.942Z,35.20
2018-08-11T17:42:00.132Z,35.50
2018-08-11T17:44:28.306Z,35.70
2018-08-11T17:46:56.662Z,36.30
2018-08-11T17:49:24.896Z,36.40
2018-08-11T17:51:53.114Z,36.60
2018-08-11T17:54:21.270Z,36.20
2018-08-11T17:56:49.812Z,36.00
2018-08-11T17:59:18.035Z,36.00
2018-08-11T18:01:46.270Z,36.30
2018-08-11T18:04:14.471Z,36.50
2018-08-11T18:06:42.682Z,36.70
2018-08-11T18:09:11.736Z,36.70
2018-08-11T18:11:40.293Z,36.90
2018-08-11T18:14:08.555Z,37.20
2018-08-11T18:16:36.767Z,38.00
2018-08-11T18:19:05.103Z,38.50
2018-08-11T18:21:33.375Z,39.20
2018-08-11T18:24:01.590Z,39.10
2018-08-11T18:26:29.788Z,39.90
2018-08-11T18:28:58.007Z,40.20
2018-08-11T18:31:26.257Z,39.70
2018-08-11T18:33:54.434Z,40.10
2018-08-11T18:36:22.973Z,40.00
2018-08-11T18:38:51.190Z,40.10
2018-08-11T18:41:19.434Z,40.40
2018-08-11T18:43:47.640Z,40.50
2018-08-11T18:46:15.854Z,40.80
2018-08-11T18:48:44.118Z,40.90
2018-08-11T18:51:12.401Z,40.90
2018-08-11T18:53:40.585Z,41.10
2018-08-11T18:56:08.914Z,41.30
2018-08-11T18:58:37.158Z,41.50
2018-08-11T19:01:05.437Z,41.70
2018-08-11T19:03:33.589Z,41.90
2018-08-11T19:06:01.784Z,42.00
2018-08-11T19:08:30.049Z,42.30
2018-08-11T19:10:58.252Z,42.70
2018-08-11T19:13:26.476Z,42.70
2018-08-11T19:15:54.670Z,42.60
2018-08-11T19:18:22.844Z,42.70
2018-08-11T19:20:51.059Z,42.80
2018-08-11T19:23:19.262Z,42.90
2018-08-11T19:25:47.521Z,42.90
2018-08-11T19:28:15.728Z,43.00
2018-08-11T19:30:43.918Z,43.20
2018-08-11T19:33:12.113Z,43.40
2018-08-11T19:35:40.325Z,43.50
2018-08-11T19:38:08.608Z,43.80
2018-08-11T19:40:36.821Z,44.10
2018-08-11T19:43:05.030Z,44.20
2018-08-11T19:45:33.217Z,44.50
2018-08-11T19:48:01.491Z,44.60
2018-08-11T19:50:29.688Z,44.70
2018-08-11T19:52:57.911Z,45.00
2018-08-11T19:55:26.164Z,45.40
2018-08-11T19:57:54.423Z,45.60
2018-08-11T20:00:22.662Z,45.80
2018-08-11T20:02:50.955Z,45.90
2018-08-11T20:05:19.241Z,46.00
2018-08-11T20:07:47.459Z,46.10
2018-08-11T20:10:15.676Z,46.20
2018-08-11T20:12:43.980Z,46.40
2018-08-11T20:15:12.186Z,46.60
2018-08-11T20:17:40.379Z,46.90
2018-08-11T20:20:09.698Z,47.10
2018-08-11T20:22:37.899Z,48.00
2018-08-11T20:25:06.236Z,47.40
2018-08-11T20:27:34.368Z,47.40
2018-08-11T20:30:02.607Z,47.50
2018-08-11T20:32:30.817Z,47.60
2018-08-11T20:34:59.042Z,47.60
2018-08-11T20:37:27.255Z,47.60
2018-08-11T20:39:55.477Z,47.90
2018-08-11T20:42:23.803Z,48.00
2018-08-11T20:44:52.047Z,47.90
2018-08-11T20:47:20.236Z,47.90
2018-08-11T20:49:48.455Z,48.00
2018-08-11T20:52:16.687Z,48.00
2018-08-11T20:54:44.917Z,48.20
2018-08-11T20:57:13.131Z,48.30
2018-08-11T20:59:41.345Z,48.50
2018-08-11T21:02:09.574Z,48.70
2018-08-11T21:04:37.943Z,48.90
2018-08-11T21:07:06.171Z,49.20
2018-08-11T21:09:34.368Z,49.40
2018-08-11T21:12:02.582Z,49.50
2018-08-11T21:14:30.789Z,49.80
2018-08-11T21:16:59.332Z,49.90
2018-08-11T21:19:27.701Z,50.00
2018-08-11T21:21:55.943Z,50.20
2018-08-11T21:24:24.127Z,50.40
2018-08-11T21:26:52.355Z,50.50
2018-08-11T21:29:20.641Z,50.60
2018-08-11T21:31:48.928Z,50.60
2018-08-11T21:34:17.127Z,50.70
2018-08-11T21:36:45.339Z,50.80
2018-08-11T21:39:14.271Z,51.00
2018-08-11T21:41:42.818Z,51.10
2018-08-11T21:44:11.022Z,51.20
2018-08-11T21:46:39.245Z,51.50
2018-08-11T21:49:08.503Z,51.60
2018-08-11T21:51:36.773Z,51.80
2018-08-11T21:54:04.939Z,51.80
2018-08-11T21:56:33.198Z,51.90
2018-08-11T21:59:01.320Z,52.20
2018-08-11T22:01:29.547Z,52.50
2018-08-11T22:03:57.775Z,52.50
2018-08-11T22:06:26.001Z,52.70
2018-08-11T22:08:54.187Z,52.80
2018-08-11T22:11:22.627Z,52.90
2018-08-11T22:13:50.829Z,53.30
2018-08-11T22:16:19.026Z,53.30
2018-08-11T22:18:47.299Z,53.40
2018-08-11T22:21:15.548Z,53.50
2018-08-11T22:23:43.833Z,53.60
2018-08-11T22:26:12.083Z,53.70
2018-08-11T22:28:40.274Z,54.20
2018-08-11T22:31:08.495Z,54.80
2018-08-11T22:33:36.690Z,54.00
2018-08-11T22:36:04.907Z,54.30
2018-08-11T22:38:33.106Z,54.50
2018-08-11T22:41:01.308Z,54.50
2018-08-11T22:43:29.522Z,54.60
2018-08-11T22:45:57.715Z,54.70
2018-08-11T22:48:25.919Z,54.80
2018-08-11T22:50:54.131Z,54.90
2018-08-11T22:53:22.442Z,55.20
2018-08-11T22:55:50.668Z,55.10
2018-08-11T22:58:18.885Z,55.20
2018-08-11T23:00:59.334Z,55.30
2018-08-11T23:03:27.532Z,55.40
2018-08-11T23:05:55.718Z,55.40
2018-08-11T23:08:23.926Z,55.60
2018-08-11T23:10:52.106Z,55.70
2018-08-11T23:13:20.302Z,55.80
2018-08-11T23:15:48.492Z,55.90
2018-08-11T23:18:16.769Z,56.30
2018-08-11T23:20:45.016Z,57.00
2018-08-11T23:23:13.286Z,57.40
2018-08-11T23:25:41.522Z,57.70
2018-08-11T23:28:09.780Z,58.10
2018-08-11T23:30:37.964Z,58.10
2018-08-11T23:33:06.154Z,58.10
2018-08-11T23:35:34.368Z,58.20
2018-08-11T23:38:02.799Z,58.30
2018-08-11T23:40:30.934Z,58.10
2018-08-11T23:42:59.144Z,58.20
2018-08-11T23:45:27.354Z,58.70
2018-08-11T23:47:55.672Z,58.10
2018-08-11T23:50:23.930Z,58.40
2018-08-11T23:52:52.138Z,58.80
2018-08-11T23:55:20.358Z,59.10
2018-08-11T23:57:48.658Z,59.10
